No particular awareness of the weather is required.    There are no Weather-warnings


Meteo18 Weather Cam more information Meteo18 Weather Cam


Thunder radar more information blitzortung!


Rain radar more information rain snow radar


Visit our other weather sites:

Template documentation
and downloads

And another site



Weather Underground History page Text

Daily Summary for April 21, 2016 Units:  Metric    English   Both
« Previous Day
Next Day »
Daily Weekly Monthly Yearly Custom
  High: Low: Average:
Temperature: 22.7 °C 9.2 °C 15.9 °C
Dew Point: 13.5 °C 7.0 °C 10 °C
Humidity: 90 % 45 % 70 %
Wind Speed: 6.4 km/h 0.0 km/h 0.6 km/h
Wind Gust: 16.1 km/h - -
Wind:- - SW
Pressure: 1019.9 hPa 1017.2 hPa -
Precipitation: 0.0 mm    
Historical Graphs
 
 
Tabular Data for April 21, 2016
Time Temperature Dew Point Pressure Wind Wind Speed Wind Gust Humidity Rainfall Rate (Hourly)
00:02 11.9 °C 7.2 °C 1018.5 hPa Calm   1.6 km/h 73 % 0.0 mm
00:12 11.9 °C 7.6 °C 1018.5 hPa Calm   1.6 km/h 75 % 0.0 mm
00:17 11.9 °C 7.8 °C 1018.8 hPa Calm     76 % 0.0 mm
00:22 11.8 °C 7.7 °C 1018.8 hPa Calm     76 % 0.0 mm
00:27 11.7 °C 7.6 °C 1018.8 hPa Calm     76 % 0.0 mm
00:32 11.6 °C 7.7 °C 1018.8 hPa Calm     77 % 0.0 mm
00:37 11.6 °C 7.9 °C 1018.8 hPa Calm     78 % 0.0 mm
00:42 11.7 °C 7.8 °C 1018.8 hPa Calm     77 % 0.0 mm
00:47 11.9 °C 7.2 °C 1018.8 hPa Calm     73 % 0.0 mm
00:52 12.3 °C 7.4 °C 1018.8 hPa NNE 1.6 km/h   72 % 0.0 mm
00:57 12.6 °C 7.3 °C 1018.8 hPa NNE 3.2 km/h 3.2 km/h 70 % 0.0 mm
01:02 12.8 °C 7.0 °C 1018.8 hPa Calm   3.2 km/h 68 % 0.0 mm
01:12 12.9 °C 7.6 °C 1018.8 hPa Calm   6.4 km/h 70 % 0.0 mm
01:17 12.6 °C 7.7 °C 1018.8 hPa Calm   6.4 km/h 72 % 0.0 mm
01:22 12.3 °C 7.6 °C 1018.8 hPa Calm   3.2 km/h 73 % 0.0 mm
01:32 12.0 °C 7.5 °C 1018.8 hPa Calm   3.2 km/h 74 % 0.0 mm
01:42 11.9 °C 7.2 °C 1018.8 hPa Calm   3.2 km/h 73 % 0.0 mm
01:47 12.1 °C 7.4 °C 1018.8 hPa Calm   3.2 km/h 73 % 0.0 mm
01:52 12.0 °C 7.5 °C 1019.2 hPa Calm   3.2 km/h 74 % 0.0 mm
01:57 11.9 °C 7.8 °C 1019.2 hPa Calm   3.2 km/h 76 % 0.0 mm
02:02 11.7 °C 7.8 °C 1019.2 hPa Calm   3.2 km/h 77 % 0.0 mm
02:12 11.8 °C 7.5 °C 1019.2 hPa Calm   1.6 km/h 75 % 0.0 mm
02:17 11.8 °C 8.1 °C 1019.2 hPa Calm   1.6 km/h 78 % 0.0 mm
02:22 11.6 °C 8.1 °C 1019.2 hPa Calm   1.6 km/h 79 % 0.0 mm
02:32 11.4 °C 7.9 °C 1019.2 hPa Calm     79 % 0.0 mm
02:37 11.4 °C 7.9 °C 1019.2 hPa Calm   1.6 km/h 79 % 0.0 mm
02:42 11.4 °C 7.9 °C 1019.2 hPa Calm   1.6 km/h 79 % 0.0 mm
02:47 11.4 °C 7.9 °C 1019.2 hPa Calm     79 % 0.0 mm
02:52 11.4 °C 7.9 °C 1019.2 hPa Calm     79 % 0.0 mm
02:57 11.4 °C 7.7 °C 1018.8 hPa Calm   1.6 km/h 78 % 0.0 mm
03:02 11.4 °C 8.1 °C 1018.8 hPa Calm   1.6 km/h 80 % 0.0 mm
03:12 11.2 °C 7.9 °C 1018.8 hPa Calm   1.6 km/h 80 % 0.0 mm
03:17 11.2 °C 7.7 °C 1018.8 hPa Calm     79 % 0.0 mm
03:22 11.0 °C 7.7 °C 1018.8 hPa Calm     80 % 0.0 mm
03:32 10.7 °C 7.8 °C 1018.8 hPa Calm   1.6 km/h 82 % 0.0 mm
03:42 10.5 °C 7.6 °C 1018.8 hPa Calm   1.6 km/h 82 % 0.0 mm
03:52 10.3 °C 7.5 °C 1018.8 hPa Calm   1.6 km/h 83 % 0.0 mm
03:57 10.2 °C 7.6 °C 1018.8 hPa Calm     84 % 0.0 mm
04:02 10.1 °C 7.5 °C 1018.8 hPa Calm     84 % 0.0 mm
04:12 9.9 °C 7.3 °C 1018.8 hPa Calm     84 % 0.0 mm
04:17 9.8 °C 7.4 °C 1018.8 hPa Calm   1.6 km/h 85 % 0.0 mm
04:22 9.9 °C 7.3 °C 1018.8 hPa Calm   1.6 km/h 84 % 0.0 mm
04:32 10.3 °C 7.7 °C 1018.5 hPa Calm   1.6 km/h 84 % 0.0 mm
04:37 10.2 °C 7.6 °C 1018.5 hPa Calm   1.6 km/h 84 % 0.0 mm
04:42 10.2 °C 7.6 °C 1018.8 hPa Calm   1.6 km/h 84 % 0.0 mm
04:47 10.3 °C 7.7 °C 1018.5 hPa Calm   1.6 km/h 84 % 0.0 mm
04:52 10.3 °C 7.9 °C 1018.5 hPa Calm   1.6 km/h 85 % 0.0 mm
05:02 10.2 °C 8.0 °C 1018.5 hPa Calm     86 % 0.0 mm
05:12 9.9 °C 8.0 °C 1018.5 hPa Calm     88 % 0.0 mm
05:17 9.7 °C 8.0 °C 1018.5 hPa Calm   1.6 km/h 89 % 0.0 mm
05:22 9.6 °C 7.9 °C 1018.8 hPa Calm   1.6 km/h 89 % 0.0 mm
05:32 9.8 °C 7.7 °C 1018.5 hPa Calm   1.6 km/h 87 % 0.0 mm
05:42 9.7 °C 7.6 °C 1018.8 hPa Calm   1.6 km/h 87 % 0.0 mm
05:52 9.4 °C 7.3 °C 1018.8 hPa Calm     87 % 0.0 mm
05:57 9.4 °C 7.3 °C 1018.8 hPa Calm     87 % 0.0 mm
06:02 9.3 °C 7.4 °C 1018.5 hPa Calm     88 % 0.0 mm
06:12 9.4 °C 7.3 °C 1018.5 hPa Calm     87 % 0.0 mm
06:17 9.5 °C 7.4 °C 1018.5 hPa Calm     87 % 0.0 mm
06:22 9.5 °C 7.3 °C 1018.5 hPa Calm     86 % 0.0 mm
06:27 9.4 °C 7.2 °C 1018.5 hPa Calm     86 % 0.0 mm
06:32 9.6 °C 7.4 °C 1018.5 hPa Calm     86 % 0.0 mm
06:37 9.6 °C 7.4 °C 1018.8 hPa Calm     86 % 0.0 mm
06:42 9.4 °C 7.3 °C 1018.8 hPa Calm     87 % 0.0 mm
06:47 9.3 °C 7.2 °C 1018.8 hPa Calm     87 % 0.0 mm
06:52 9.4 °C 7.3 °C 1018.8 hPa Calm     87 % 0.0 mm
06:57 9.3 °C 7.2 °C 1018.8 hPa Calm     87 % 0.0 mm
07:02 9.3 °C 7.4 °C 1018.8 hPa Calm     88 % 0.0 mm
07:12 9.2 °C 7.3 °C 1018.8 hPa Calm     88 % 0.0 mm
07:17 9.2 °C 7.5 °C 1018.8 hPa Calm     89 % 0.0 mm
07:22 9.3 °C 7.6 °C 1018.8 hPa Calm   1.6 km/h 89 % 0.0 mm
07:32 9.3 °C 7.6 °C 1018.8 hPa Calm   1.6 km/h 89 % 0.0 mm
07:37 9.4 °C 7.7 °C 1018.8 hPa Calm   1.6 km/h 89 % 0.0 mm
07:42 9.4 °C 7.7 °C 1018.8 hPa Calm   1.6 km/h 89 % 0.0 mm
07:47 9.5 °C 7.9 °C 1018.8 hPa Calm     90 % 0.0 mm
07:52 9.7 °C 8.1 °C 1018.8 hPa Calm     90 % 0.0 mm
08:02 10.2 °C 8.5 °C 1018.8 hPa Calm     89 % 0.0 mm
08:07 10.2 °C 8.5 °C 1018.8 hPa Calm     89 % 0.0 mm
08:12 10.3 °C 8.7 °C 1018.8 hPa Calm   1.6 km/h 90 % 0.0 mm
08:17 10.3 °C 8.7 °C 1018.8 hPa Calm   1.6 km/h 90 % 0.0 mm
08:22 10.6 °C 9.0 °C 1018.8 hPa Calm   1.6 km/h 90 % 0.0 mm
08:27 10.7 °C 9.1 °C 1018.8 hPa Calm   1.6 km/h 90 % 0.0 mm
08:32 10.9 °C 9.3 °C 1018.8 hPa Calm   1.6 km/h 90 % 0.0 mm
08:37 11.3 °C 9.6 °C 1018.8 hPa Calm     89 % 0.0 mm
08:42 11.6 °C 9.8 °C 1019.2 hPa Calm     89 % 0.0 mm
08:47 11.9 °C 10.1 °C 1019.2 hPa Calm     89 % 0.0 mm
08:57 12.4 °C 10.6 °C 1018.8 hPa Calm   1.6 km/h 89 % 0.0 mm
09:02 12.8 °C 10.9 °C 1018.8 hPa Calm   1.6 km/h 88 % 0.0 mm
09:07 13.1 °C 10.1 °C 1018.8 hPa Calm   1.6 km/h 82 % 0.0 mm
09:17 13.9 °C 9.3 °C 1018.8 hPa Calm   4.8 km/h 74 % 0.0 mm
09:22 14.3 °C 9.9 °C 1018.8 hPa Calm   3.2 km/h 75 % 0.0 mm
09:27 14.5 °C 9.9 °C 1018.8 hPa WNW 1.6 km/h 3.2 km/h 74 % 0.0 mm
09:32 14.7 °C 10.1 °C 1018.8 hPa Calm   1.6 km/h 74 % 0.0 mm
09:37 14.9 °C 9.9 °C 1018.8 hPa Calm   1.6 km/h 72 % 0.0 mm
09:42 15.2 °C 10.2 °C 1018.8 hPa Calm   3.2 km/h 72 % 0.0 mm
09:47 15.3 °C 9.9 °C 1018.8 hPa Calm   3.2 km/h 70 % 0.0 mm
09:52 15.4 °C 10.2 °C 1018.8 hPa Calm   6.4 km/h 71 % 0.0 mm
09:57 15.5 °C 10.3 °C 1018.8 hPa Calm   6.4 km/h 71 % 0.0 mm
10:02 15.5 °C 10.3 °C 1018.8 hPa Calm   4.8 km/h 71 % 0.0 mm
10:07 15.6 °C 10.6 °C 1018.8 hPa Calm   4.8 km/h 72 % 0.0 mm
10:12 15.6 °C 10.6 °C 1018.8 hPa NW 1.6 km/h 4.8 km/h 72 % 0.0 mm
10:17 15.6 °C 10.6 °C 1018.8 hPa Calm   1.6 km/h 72 % 0.0 mm
10:22 15.8 °C 10.8 °C 1018.8 hPa Calm   1.6 km/h 72 % 0.0 mm
10:27 16.0 °C 11.0 °C 1018.8 hPa NNW 1.6 km/h 1.6 km/h 72 % 0.0 mm
10:32 16.1 °C 10.8 °C 1018.8 hPa Calm   3.2 km/h 71 % 0.0 mm
10:37 16.4 °C 11.3 °C 1018.8 hPa Calm   3.2 km/h 72 % 0.0 mm
10:42 16.7 °C 11.0 °C 1018.8 hPa North 1.6 km/h 3.2 km/h 69 % 0.0 mm
10:47 16.9 °C 11.4 °C 1018.8 hPa NW 1.6 km/h 3.2 km/h 70 % 0.0 mm
10:52 17.3 °C 11.1 °C 1018.8 hPa NNW 1.6 km/h 4.8 km/h 67 % 0.0 mm
10:57 17.5 °C 10.8 °C 1018.8 hPa Calm   4.8 km/h 65 % 0.0 mm
11:02 18.0 °C 11.3 °C 1018.8 hPa NW 3.2 km/h 4.8 km/h 65 % 0.0 mm
11:07 18.3 °C 11.8 °C 1018.8 hPa Calm   4.8 km/h 66 % 0.0 mm
11:12 18.9 °C 12.2 °C 1018.8 hPa WNW 1.6 km/h 6.4 km/h 65 % 0.0 mm
11:17 19.3 °C 11.3 °C 1018.5 hPa WNW 1.6 km/h 6.4 km/h 60 % 0.0 mm
11:22 19.6 °C 10.6 °C 1018.5 hPa Calm   11.3 km/h 56 % 0.0 mm
11:27 19.9 °C 11.1 °C 1018.5 hPa Calm   11.3 km/h 57 % 0.0 mm
11:32 20.1 °C 10.8 °C 1018.5 hPa Calm   6.4 km/h 55 % 0.0 mm
11:37 20.4 °C 11.3 °C 1018.5 hPa West 1.6 km/h 6.4 km/h 56 % 0.0 mm
11:42 20.7 °C 10.2 °C 1018.5 hPa SW 4.8 km/h 11.3 km/h 51 % 0.0 mm
11:47 20.7 °C 11.3 °C 1018.8 hPa SW 3.2 km/h 11.3 km/h 55 % 0.0 mm
11:52 20.6 °C 9.8 °C 1018.5 hPa Calm   6.4 km/h 50 % 0.0 mm
11:57 20.3 °C 10.4 °C 1018.8 hPa NNW 6.4 km/h 6.4 km/h 53 % 0.0 mm
12:02 20.3 °C 11.5 °C 1018.8 hPa WNW 3.2 km/h 9.7 km/h 57 % 0.0 mm
12:07 20.2 °C 10.6 °C 1018.8 hPa Calm   9.7 km/h 54 % 0.0 mm
12:12 19.7 °C 10.7 °C 1018.8 hPa WSW 1.6 km/h 9.7 km/h 56 % 0.0 mm
12:17 19.7 °C 10.9 °C 1018.8 hPa WSW 1.6 km/h 9.7 km/h 57 % 0.0 mm
12:27 20.1 °C 11.0 °C 1018.8 hPa SSW 1.6 km/h 6.4 km/h 56 % 0.0 mm
12:37 20.4 °C 11.1 °C 1018.5 hPa Calm   8.0 km/h 55 % 0.0 mm
12:42 20.6 °C 9.8 °C 1018.5 hPa WSW 4.8 km/h 8.0 km/h 50 % 0.0 mm
12:47 20.8 °C 12.5 °C 1018.5 hPa Calm   8.0 km/h 59 % 0.0 mm
12:52 21.3 °C 10.8 °C 1018.5 hPa WSW 3.2 km/h 8.0 km/h 51 % 0.0 mm
12:57 21.2 °C 10.1 °C 1018.8 hPa SW 3.2 km/h 9.7 km/h 49 % 0.0 mm
13:02 21.3 °C 10.2 °C 1018.5 hPa SW 3.2 km/h 9.7 km/h 49 % 0.0 mm
13:12 21.2 °C 11.2 °C 1018.5 hPa SW 1.6 km/h 8.0 km/h 53 % 0.0 mm
13:17 21.6 °C 12.7 °C 1018.8 hPa Calm   6.4 km/h 57 % 0.0 mm
13:22 21.7 °C 11.4 °C 1018.5 hPa Calm   8.0 km/h 52 % 0.0 mm
13:32 21.4 °C 11.7 °C 1018.5 hPa Calm   8.0 km/h 54 % 0.0 mm
13:37 21.8 °C 11.2 °C 1018.2 hPa WSW 3.2 km/h 6.4 km/h 51 % 0.0 mm
13:47 22.3 °C 13.4 °C 1018.2 hPa ESE 1.6 km/h 4.8 km/h 57 % 0.0 mm
13:52 22.2 °C 12.7 °C 1018.2 hPa WSW 3.2 km/h 9.7 km/h 55 % 0.0 mm
13:57 22.2 °C 12.2 °C 1018.2 hPa SW 1.6 km/h 9.7 km/h 53 % 0.0 mm
14:02 22.2 °C 12.4 °C 1018.2 hPa WSW 1.6 km/h 8.0 km/h 54 % 0.0 mm
14:07 22.1 °C 11.8 °C 1018.2 hPa SW 3.2 km/h 9.7 km/h 52 % 0.0 mm
14:12 21.9 °C 11.6 °C 1017.8 hPa Calm   9.7 km/h 52 % 0.0 mm
14:17 22.3 °C 12.0 °C 1017.8 hPa SW 1.6 km/h 9.7 km/h 52 % 0.0 mm
14:22 22.7 °C 11.7 °C 1017.8 hPa Calm   6.4 km/h 50 % 0.0 mm
14:27 22.7 °C 12.0 °C 1017.8 hPa West 1.6 km/h 6.4 km/h 51 % 0.0 mm
14:32 22.5 °C 13.0 °C 1018.2 hPa SW 4.8 km/h 8.0 km/h 55 % 0.0 mm
14:37 22.3 °C 11.1 °C 1018.2 hPa Calm   8.0 km/h 49 % 0.0 mm
14:42 22.2 °C 11.9 °C 1018.2 hPa SW 3.2 km/h 6.4 km/h 52 % 0.0 mm
14:47 22.1 °C 12.6 °C 1018.2 hPa WSW 1.6 km/h 6.4 km/h 55 % 0.0 mm
14:52 22.2 °C 13.5 °C 1018.2 hPa Calm   6.4 km/h 58 % 0.0 mm
14:57 22.4 °C 12.9 °C 1017.8 hPa Calm   6.4 km/h 55 % 0.0 mm
15:02 22.6 °C 13.1 °C 1018.2 hPa WSW 3.2 km/h 6.4 km/h 55 % 0.0 mm
15:07 22.7 °C 13.2 °C 1018.2 hPa Calm   8.0 km/h 55 % 0.0 mm
15:12 22.7 °C 11.4 °C 1017.8 hPa Calm   11.3 km/h 49 % 0.0 mm
15:17 22.5 °C 11.3 °C 1017.8 hPa SW 3.2 km/h 11.3 km/h 49 % 0.0 mm
15:22 22.2 °C 11.9 °C 1017.8 hPa SW 3.2 km/h 11.3 km/h 52 % 0.0 mm
15:27 22.3 °C 11.4 °C 1017.8 hPa SW 1.6 km/h 6.4 km/h 50 % 0.0 mm
15:32 22.4 °C 12.1 °C 1017.8 hPa SW 1.6 km/h 6.4 km/h 52 % 0.0 mm
15:37 22.3 °C 12.0 °C 1017.8 hPa Calm   6.4 km/h 52 % 0.0 mm
15:42 22.2 °C 11.9 °C 1017.8 hPa South 3.2 km/h 6.4 km/h 52 % 0.0 mm
15:47 22.1 °C 11.8 °C 1017.8 hPa SW 1.6 km/h 4.8 km/h 52 % 0.0 mm
15:52 21.9 °C 11.0 °C 1017.8 hPa SW 1.6 km/h 4.8 km/h 50 % 0.0 mm
15:57 22.0 °C 11.7 °C 1017.8 hPa Calm   4.8 km/h 52 % 0.0 mm
16:02 22.0 °C 11.4 °C 1017.8 hPa Calm   3.2 km/h 51 % 0.0 mm
16:07 22.1 °C 10.9 °C 1017.5 hPa SW 3.2 km/h 3.2 km/h 49 % 0.0 mm
16:12 22.0 °C 10.8 °C 1017.5 hPa Calm   3.2 km/h 49 % 0.0 mm
16:17 21.9 °C 10.1 °C 1017.5 hPa Calm   3.2 km/h 47 % 0.0 mm
16:22 21.9 °C 9.4 °C 1017.5 hPa Calm   3.2 km/h 45 % 0.0 mm
16:27 21.9 °C 10.1 °C 1017.5 hPa Calm   3.2 km/h 47 % 0.0 mm
16:32 22.0 °C 11.1 °C 1017.5 hPa Calm   3.2 km/h 50 % 0.0 mm
16:37 21.9 °C 10.4 °C 1017.5 hPa Calm   1.6 km/h 48 % 0.0 mm
16:42 21.7 °C 11.4 °C 1017.5 hPa Calm   3.2 km/h 52 % 0.0 mm
16:47 21.5 °C 11.5 °C 1017.5 hPa Calm   3.2 km/h 53 % 0.0 mm
16:52 21.3 °C 11.3 °C 1017.5 hPa Calm   3.2 km/h 53 % 0.0 mm
16:57 21.2 °C 11.2 °C 1017.5 hPa Calm   3.2 km/h 53 % 0.0 mm
17:02 21.2 °C 11.2 °C 1017.5 hPa Calm   1.6 km/h 53 % 0.0 mm
17:12 21.3 °C 9.8 °C 1017.5 hPa Calm   4.8 km/h 48 % 0.0 mm
17:17 21.3 °C 10.5 °C 1017.5 hPa SW 1.6 km/h 4.8 km/h 50 % 0.0 mm
17:22 21.2 °C 10.7 °C 1017.5 hPa Calm   4.8 km/h 51 % 0.0 mm
17:27 21.1 °C 10.6 °C 1017.5 hPa Calm   6.4 km/h 51 % 0.0 mm
17:32 21.0 °C 11.1 °C 1017.5 hPa Calm   6.4 km/h 53 % 0.0 mm
17:37 20.8 °C 10.9 °C 1017.5 hPa Calm   6.4 km/h 53 % 0.0 mm
17:42 20.7 °C 10.2 °C 1017.5 hPa Calm   3.2 km/h 51 % 0.0 mm
17:47 20.6 °C 10.7 °C 1017.2 hPa Calm   3.2 km/h 53 % 0.0 mm
17:52 20.4 °C 9.9 °C 1017.2 hPa SW 1.6 km/h 3.2 km/h 51 % 0.0 mm
17:57 20.3 °C 11.0 °C 1017.2 hPa Calm   1.6 km/h 55 % 0.0 mm
18:02 20.1 °C 10.8 °C 1017.2 hPa Calm   3.2 km/h 55 % 0.0 mm
18:07 19.9 °C 11.6 °C 1017.5 hPa Calm   3.2 km/h 59 % 0.0 mm
18:12 19.7 °C 12.2 °C 1017.5 hPa SW 1.6 km/h 4.8 km/h 62 % 0.0 mm
18:17 19.4 °C 12.4 °C 1017.5 hPa Calm   4.8 km/h 64 % 0.0 mm
18:22 19.2 °C 12.5 °C 1017.5 hPa Calm   4.8 km/h 65 % 0.0 mm
18:32 18.9 °C 12.2 °C 1017.5 hPa WSW 3.2 km/h 4.8 km/h 65 % 0.0 mm
18:37 18.8 °C 11.8 °C 1017.5 hPa WSW 3.2 km/h 4.8 km/h 64 % 0.0 mm
18:42 18.7 °C 12.0 °C 1017.5 hPa Calm   6.4 km/h 65 % 0.0 mm
18:47 18.6 °C 11.7 °C 1017.5 hPa Calm   6.4 km/h 64 % 0.0 mm
18:52 18.5 °C 11.3 °C 1017.5 hPa Calm   4.8 km/h 63 % 0.0 mm
18:57 18.4 °C 11.7 °C 1017.8 hPa Calm   3.2 km/h 65 % 0.0 mm
19:02 18.3 °C 11.4 °C 1017.8 hPa Calm   3.2 km/h 64 % 0.0 mm
19:07 18.2 °C 11.7 °C 1017.8 hPa Calm   3.2 km/h 66 % 0.0 mm
19:12 18.0 °C 11.6 °C 1017.8 hPa Calm   1.6 km/h 66 % 0.0 mm
19:17 17.9 °C 10.8 °C 1017.8 hPa Calm   1.6 km/h 63 % 0.0 mm
19:22 17.8 °C 10.9 °C 1017.8 hPa Calm   1.6 km/h 64 % 0.0 mm
19:32 17.5 °C 10.6 °C 1017.8 hPa Calm   1.6 km/h 64 % 0.0 mm
19:37 17.3 °C 11.1 °C 1017.8 hPa Calm   1.6 km/h 67 % 0.0 mm
19:42 17.1 °C 10.9 °C 1017.8 hPa Calm     67 % 0.0 mm
19:47 16.9 °C 10.7 °C 1017.8 hPa Calm     67 % 0.0 mm
19:52 16.8 °C 10.9 °C 1017.8 hPa Calm     68 % 0.0 mm
19:57 16.6 °C 10.7 °C 1017.8 hPa Calm     68 % 0.0 mm
20:02 16.4 °C 10.5 °C 1017.8 hPa Calm     68 % 0.0 mm
20:07 16.3 °C 10.8 °C 1017.8 hPa Calm     70 % 0.0 mm
20:12 16.1 °C 10.6 °C 1017.8 hPa Calm     70 % 0.0 mm
20:17 16.0 °C 10.5 °C 1017.8 hPa Calm     70 % 0.0 mm
20:22 16.0 °C 11.0 °C 1018.2 hPa Calm     72 % 0.0 mm
20:27 15.9 °C 10.9 °C 1018.2 hPa Calm     72 % 0.0 mm
20:32 15.8 °C 10.8 °C 1018.2 hPa Calm   1.6 km/h 72 % 0.0 mm
20:37 15.7 °C 10.7 °C 1018.5 hPa SW 3.2 km/h 3.2 km/h 72 % 0.0 mm
20:42 15.8 °C 10.6 °C 1018.5 hPa WSW 1.6 km/h 4.8 km/h 71 % 0.0 mm
20:47 15.8 °C 10.6 °C 1018.8 hPa South 3.2 km/h 4.8 km/h 71 % 0.0 mm
20:57 16.1 °C 10.4 °C 1018.8 hPa South 3.2 km/h 11.3 km/h 69 % 0.0 mm
21:02 16.2 °C 10.7 °C 1018.8 hPa Calm   16.1 km/h 70 % 0.0 mm
21:07 16.1 °C 10.6 °C 1018.8 hPa WSW 3.2 km/h 16.1 km/h 70 % 0.0 mm
21:12 16.1 °C 10.6 °C 1018.8 hPa ESE 3.2 km/h 16.1 km/h 70 % 0.0 mm
21:22 15.9 °C 10.6 °C 1018.8 hPa Calm   9.7 km/h 71 % 0.0 mm
21:27 15.8 °C 10.8 °C 1019.2 hPa Calm   9.7 km/h 72 % 0.0 mm
21:32 15.7 °C 10.7 °C 1019.2 hPa Calm   6.4 km/h 72 % 0.0 mm
21:37 15.6 °C 10.8 °C 1019.2 hPa SSW 1.6 km/h 6.4 km/h 73 % 0.0 mm
21:42 15.6 °C 11.0 °C 1019.2 hPa Calm   6.4 km/h 74 % 0.0 mm
21:52 15.6 °C 11.0 °C 1019.2 hPa Calm   4.8 km/h 74 % 0.0 mm
21:57 15.4 °C 10.8 °C 1019.2 hPa SW 1.6 km/h 4.8 km/h 74 % 0.0 mm
22:02 15.4 °C 10.6 °C 1019.2 hPa WSW 3.2 km/h 4.8 km/h 73 % 0.0 mm
22:07 15.4 °C 10.8 °C 1019.5 hPa Calm   4.8 km/h 74 % 0.0 mm
22:12 15.3 °C 10.7 °C 1019.5 hPa Calm   4.8 km/h 74 % 0.0 mm
22:17 15.3 °C 10.9 °C 1019.5 hPa Calm   3.2 km/h 75 % 0.0 mm
22:22 15.2 °C 10.8 °C 1019.5 hPa SW 3.2 km/h 3.2 km/h 75 % 0.0 mm
22:27 15.1 °C 10.9 °C 1019.5 hPa Calm   3.2 km/h 76 % 0.0 mm
22:32 15.1 °C 11.1 °C 1019.5 hPa Calm   3.2 km/h 77 % 0.0 mm
22:37 14.9 °C 11.1 °C 1019.5 hPa SSE 1.6 km/h 4.8 km/h 78 % 0.0 mm
22:42 14.8 °C 11.0 °C 1019.5 hPa Calm   4.8 km/h 78 % 0.0 mm
22:47 14.7 °C 10.9 °C 1019.5 hPa Calm   1.6 km/h 78 % 0.0 mm
22:52 14.6 °C 11.0 °C 1019.5 hPa Calm   4.8 km/h 79 % 0.0 mm
22:57 14.5 °C 10.9 °C 1019.5 hPa Calm   4.8 km/h 79 % 0.0 mm
23:02 14.4 °C 11.0 °C 1019.9 hPa Calm     80 % 0.0 mm
23:07 14.3 °C 10.9 °C 1019.5 hPa Calm     80 % 0.0 mm
23:12 14.2 °C 11.0 °C 1019.5 hPa Calm     81 % 0.0 mm
23:17 14.2 °C 11.0 °C 1019.5 hPa Calm     81 % 0.0 mm
23:22 14.1 °C 10.9 °C 1019.5 hPa Calm     81 % 0.0 mm
23:27 14.1 °C 11.1 °C 1019.5 hPa Calm     82 % 0.0 mm
23:37 14.0 °C 11.0 °C 1019.5 hPa Calm     82 % 0.0 mm
23:42 14.0 °C 11.0 °C 1019.5 hPa Calm     82 % 0.0 mm
23:47 14.0 °C 11.0 °C 1019.5 hPa Calm     82 % 0.0 mm
23:52 14.0 °C 11.0 °C 1019.5 hPa Calm     82 % 0.0 mm
23:57 14.0 °C 11.0 °C 1019.9 hPa Calm     82 % 0.0 mm
Meteo18
Compliments of Weather Underground - 4 mb

Script developed by  Jim McMurry - jmcmurry@mwt.net Adapted for the template by  Wim van der Kuil - Leuven-Template.eu

You find our weather info also at:

European Weather Network

Weather Underground

Equipment we use:

Weather-station
Davis Vue

Weather-program
Meteohub

Weather-server
Raspberry PI 2 B+

Provider
1 and 1

Davis Vue

Meteohub

Raspberry PI 2 B+

1 and 1